WetterOnline ( https://www.wetteronline.ch )

Wetter aktuell Ghedi

Aktuelles Wetter: Ghedi (97m)

6-stündlich | Neueste Meldungen
Ortszeit Temperatur Wetter
Sa, 24.08. 8:00 23.0° C wolkig
Sa, 24.08. 2:00 23.8° C leicht bewölkt
Fr, 23.08. 20:00 27.8° C wolkig
Fr, 23.08. 14:00 26.7° C wolkig
Fr, 23.08. 8:00 23.8° C leicht bewölkt
Fr, 23.08. 2:00 23.0° C wolkenlos
Do, 22.08. 20:00 26.8° C leicht bewölkt
Do, 22.08. 14:00 28.0° C leicht bewölkt
Ortszeit Temperatur Wetter
Sa, 24.08. 8:00 23.0° C wolkig
Sa, 24.08. 7:55 23° C leicht bewölkt
Sa, 24.08. 7:00 22.4° C leicht bewölkt
Sa, 24.08. 6:55 22° C leicht bewölkt
Sa, 24.08. 6:00 22.6° C leicht bewölkt
Sa, 24.08. 5:55 23° C leicht bewölkt
Sa, 24.08. 5:00 22.8° C leicht bewölkt
Sa, 24.08. 4:55 23° C leicht bewölkt
Sa, 24.08. 4:00 23.2° C leicht bewölkt
Ortszeit Relative Feuchte Sichtweite
Sa, 24.08. 8:00 88% 10 km
Sa, 24.08. 2:00 89% 10 km
Fr, 23.08. 20:00 63% 10 km
Fr, 23.08. 14:00 67% 8 km
Fr, 23.08. 8:00 88% 8 km
Fr, 23.08. 2:00 88% 10 km
Do, 22.08. 20:00 59% 10 km
Do, 22.08. 14:00 61% 10 km
Ortszeit Relative Feuchte Sichtweite
Sa, 24.08. 8:00 88% 10 km
Sa, 24.08. 7:55 89% >10 km
Sa, 24.08. 7:00 88% 8 km
Sa, 24.08. 6:55 88% 8 km
Sa, 24.08. 6:00 88% 7 km
Sa, 24.08. 5:55 89% 7 km
Sa, 24.08. 5:00 88% 10 km
Sa, 24.08. 4:55 89% >10 km
Sa, 24.08. 4:00 88% 10 km
Ortszeit Niederschlagsmenge Niederschlagsart
Sa, 24.08. 8:00 0.1 l/m2 in 12 Std. -
Sa, 24.08. 2:00 0.1 l/m2 in 6 Std. Regen
Fr, 23.08. 20:00 0.2 l/m2 in 12 Std. -
Fr, 23.08. 14:00 0.2 l/m2 in 6 Std. -
Fr, 23.08. 8:00 0.0 l/m2 in 12 Std. -
Fr, 23.08. 2:00 0.0 l/m2 in 6 Std. -
Do, 22.08. 20:00 0.1 l/m2 in 12 Std. -
Do, 22.08. 14:00 0.1 l/m2 in 6 Std. Regen
Ortszeit Niederschlagsmenge Niederschlagsart
Sa, 24.08. 8:00 keine Meldung -
Sa, 24.08. 7:55 keine Meldung -
Sa, 24.08. 7:00 keine Meldung -
Sa, 24.08. 6:55 keine Meldung -
Sa, 24.08. 6:00 keine Meldung -
Sa, 24.08. 5:55 keine Meldung -
Sa, 24.08. 5:00 keine Meldung -
Sa, 24.08. 4:55 keine Meldung -
Sa, 24.08. 4:00 keine Meldung -
Ortszeit Stärke Spitze Richtung
km/h Bft. km/h Grad Sektor
Sa, 24.08. 8:00 4 1 - 290° W
Sa, 24.08. 2:00 4 1 - 360° N
Fr, 23.08. 20:00 2 1 - 270° W
Fr, 23.08. 14:00 7 2 - 80° O
Fr, 23.08. 8:00 6 1 - 140° SO
Fr, 23.08. 2:00 2 1 - 360° N
Do, 22.08. 20:00 7 2 - 160° S
Do, 22.08. 14:00 4 1 - 170° S
Ortszeit Stärke Spitze Richtung
km/h Bft. km/h Grad Sektor
Sa, 24.08. 8:00 4 1 - 290° W
Sa, 24.08. 7:55 4 1 - 290° W
Sa, 24.08. 7:00 4 1 - 50° NO
Sa, 24.08. 6:55 4 1 - 50° NO
Sa, 24.08. 6:00 4 1 - 320° NW
Sa, 24.08. 5:55 4 1 - 320° NW
Sa, 24.08. 5:00 4 1 - 300° NW
Sa, 24.08. 4:55 4 1 - 300° NW
Sa, 24.08. 4:00 2 1 - 340° N
Ortszeit Untergrenze Bedeckung Gattung
total tief tief mittel hoch
Sa, 24.08. 8:00 1500 m 6/8 3/8 Sc Ac -
Sa, 24.08. 2:00 2400 m 3/8 3/8 - Ac -
Fr, 23.08. 20:00 1320 m 6/8 3/8 Cu - Ci
Fr, 23.08. 14:00 1500 m 8/8 3/8 Sc Ac -
Fr, 23.08. 8:00 2400 m 6/8 6/8 - Ac -
Fr, 23.08. 2:00 - 0/8 0/8 - - -
Do, 22.08. 20:00 3000 m 3/8 3/8 - Ac Ci
Do, 22.08. 14:00 900 m 3/8 2/8 Cu Ac -
Ortszeit Bedeckungsgrad in Achtel und Wolkenuntergrenze
Sa, 24.08. 8:00 3(1500m) 3(2400m)
Sa, 24.08. 7:55 3-4(1500m) 3-4(2400m)
Sa, 24.08. 7:00 2(1500m) 3(3000m)
Sa, 24.08. 6:55 1-2(1500m)
Sa, 24.08. 6:00 2(2400m)
Sa, 24.08. 5:55 1-2(2400m)
Sa, 24.08. 5:00 3(2400m)
Sa, 24.08. 4:55 3-4(2400m)
Sa, 24.08. 4:00 2(2400m)
Ortszeit Luftdruck NN (hPa) Tendenz (hPa in 3 Std.)
Sa, 24.08. 8:00 1020 - 0,1
Sa, 24.08. 2:00 1020 0,0
Fr, 23.08. 20:00 1019 - 0,4
Fr, 23.08. 14:00 1021 - 0,7
Fr, 23.08. 8:00 1021 + 1,1
Fr, 23.08. 2:00 1020 0,0
Do, 22.08. 20:00 1019 0,0
Do, 22.08. 14:00 1021 - 0,6
Ortszeit Luftdruck NN (hPa) Tendenz (hPa in 3 Std.)
Sa, 24.08. 8:00 1020 - 0,1
Sa, 24.08. 7:55 1019 keine Meldung
Sa, 24.08. 7:00 1020 - 0,5
Sa, 24.08. 6:55 1019 keine Meldung
Sa, 24.08. 6:00 1020 - 0,6
Sa, 24.08. 5:55 1019 keine Meldung
Sa, 24.08. 5:00 1020 - 0,4
Sa, 24.08. 4:55 1020 keine Meldung
Sa, 24.08. 4:00 1020 - 0,1
Ortszeit Schneehöhe (cm)
Sa, 24.08. 8:00 -
Sa, 24.08. 2:00 -
Fr, 23.08. 20:00 -
Fr, 23.08. 14:00 -
Fr, 23.08. 8:00 0
Fr, 23.08. 2:00 -
Do, 22.08. 20:00 -
Do, 22.08. 14:00 -
Ortszeit Schneehöhe (cm)
Sa, 24.08. 8:00 -
Sa, 24.08. 7:55 -
Sa, 24.08. 7:00 -
Sa, 24.08. 6:55 -
Sa, 24.08. 6:00 -
Sa, 24.08. 5:55 -
Sa, 24.08. 5:00 -
Sa, 24.08. 4:55 -
Sa, 24.08. 4:00 -
Link zu dieser Seite / Seite empfehlen

Das Wetter in ...